createdAt,value
2018-04-27T00:00:10.285Z,81.28
2018-04-27T00:01:10.291Z,81.37
2018-04-27T00:02:10.307Z,80.80
2018-04-27T00:03:10.309Z,81.56
2018-04-27T00:04:10.325Z,81.85
2018-04-27T00:05:10.406Z,81.13
2018-04-27T00:06:10.344Z,81.28
2018-04-27T00:07:10.348Z,81.13
2018-04-27T00:08:10.371Z,80.52
2018-04-27T00:09:10.367Z,80.55
2018-04-27T00:10:10.376Z,80.36
2018-04-27T00:11:10.389Z,80.36
2018-04-27T00:12:10.395Z,80.23
2018-04-27T00:13:10.404Z,80.23
2018-04-27T00:14:10.414Z,80.80
2018-04-27T00:15:10.423Z,81.37
2018-04-27T00:16:10.438Z,81.47
2018-04-27T00:17:10.451Z,81.18
2018-04-27T00:18:10.449Z,81.09
2018-04-27T00:19:10.466Z,80.42
2018-04-27T00:20:10.479Z,80.42
2018-04-27T00:21:10.476Z,81.09
2018-04-27T00:22:10.484Z,80.52
2018-04-27T00:23:10.501Z,80.99
2018-04-27T00:24:10.504Z,80.80
2018-04-27T00:25:10.511Z,80.42
2018-04-27T00:26:10.520Z,81.56
2018-04-27T00:27:10.530Z,82.14
2018-04-27T00:28:10.539Z,82.14
2018-04-27T00:29:10.557Z,81.66
2018-04-27T00:30:10.553Z,82.04
2018-04-27T00:31:10.570Z,82.32
2018-04-27T00:32:10.579Z,82.23
2018-04-27T00:33:10.593Z,81.66
2018-04-27T00:34:10.594Z,80.90
2018-04-27T00:35:10.626Z,81.37
2018-04-27T00:36:10.614Z,81.85
2018-04-27T00:37:10.619Z,81.47
2018-04-27T00:38:10.636Z,81.37
2018-04-27T00:39:10.643Z,81.85
2018-04-27T00:40:10.651Z,82.32
2018-04-27T00:41:10.662Z,82.23
2018-04-27T00:42:10.674Z,82.14
2018-04-27T00:43:10.680Z,82.51
2018-04-27T00:44:10.687Z,82.32
2018-04-27T00:45:10.692Z,82.61
2018-04-27T00:46:10.702Z,82.80
2018-04-27T00:47:10.714Z,82.61
2018-04-27T00:48:10.723Z,82.42
2018-04-27T00:49:10.729Z,81.95
2018-04-27T00:50:10.744Z,81.66
2018-04-27T00:51:10.750Z,81.24
2018-04-27T00:52:10.757Z,81.62
2018-04-27T00:53:10.765Z,81.56
2018-04-27T00:54:10.772Z,81.37
2018-04-27T00:55:10.783Z,81.33
2018-04-27T00:56:10.795Z,81.37
2018-04-27T00:57:10.803Z,81.43
2018-04-27T00:58:10.810Z,81.33
2018-04-27T00:59:10.816Z,80.95
2018-04-27T01:00:10.834Z,81.18
2018-04-27T01:01:10.836Z,81.56
2018-04-27T01:02:10.849Z,81.28
2018-04-27T01:03:10.856Z,82.14
2018-04-27T01:04:10.865Z,82.67
2018-04-27T01:05:10.875Z,82.57
2018-04-27T01:06:10.882Z,83.14
2018-04-27T01:07:10.900Z,82.76
2018-04-27T01:08:10.909Z,82.48
2018-04-27T01:09:10.908Z,81.71
2018-04-27T01:10:10.922Z,81.90
2018-04-27T01:11:10.933Z,82.00
2018-04-27T01:12:10.936Z,81.43
2018-04-27T01:13:10.955Z,80.19
2018-04-27T01:14:10.958Z,80.19
2018-04-27T01:15:10.965Z,81.14
2018-04-27T01:16:10.972Z,80.66
2018-04-27T01:17:10.981Z,81.18
2018-04-27T01:18:10.987Z,81.43
2018-04-27T01:19:11.000Z,81.90
2018-04-27T01:20:11.007Z,83.14
2018-04-27T01:21:11.017Z,84.28
2018-04-27T01:22:11.052Z,83.42
2018-04-27T01:23:11.036Z,82.95
2018-04-27T01:24:11.077Z,82.48
2018-04-27T01:25:11.061Z,82.57
2018-04-27T01:26:11.060Z,82.48
2018-04-27T01:27:11.073Z,82.57
2018-04-27T01:28:11.118Z,82.00
2018-04-27T01:29:11.093Z,82.00
2018-04-27T01:30:11.098Z,81.14
2018-04-27T01:31:11.103Z,80.86
2018-04-27T01:32:11.113Z,81.24
2018-04-27T01:33:11.120Z,81.05
2018-04-27T01:34:11.142Z,81.43
2018-04-27T01:35:11.140Z,81.33
2018-04-27T01:36:11.158Z,81.14
2018-04-27T01:37:11.159Z,81.90
2018-04-27T01:38:11.169Z,82.57
2018-04-27T01:39:11.173Z,82.57
2018-04-27T01:40:11.199Z,82.32
2018-04-27T01:41:11.195Z,82.86
2018-04-27T01:42:11.206Z,82.38
2018-04-27T01:43:11.209Z,82.57
2018-04-27T01:44:11.223Z,82.19
2018-04-27T01:45:11.233Z,82.00
2018-04-27T01:46:11.239Z,81.52
2018-04-27T01:47:11.251Z,80.95
2018-04-27T01:48:11.255Z,81.71
2018-04-27T01:49:11.265Z,82.00
2018-04-27T01:50:11.272Z,82.00
2018-04-27T01:51:11.280Z,81.71
2018-04-27T01:52:11.297Z,81.71
2018-04-27T01:53:11.306Z,81.43
2018-04-27T01:54:11.312Z,81.14
2018-04-27T01:55:11.324Z,81.52
2018-04-27T01:56:11.329Z,81.52
2018-04-27T01:57:11.334Z,82.67
2018-04-27T01:58:11.348Z,82.76
2018-04-27T01:59:11.355Z,82.38
2018-04-27T02:00:11.370Z,82.00
2018-04-27T02:01:11.370Z,82.00
2018-04-27T02:02:11.380Z,82.57
2018-04-27T02:03:11.396Z,82.09
2018-04-27T02:04:11.399Z,81.81
2018-04-27T02:05:11.404Z,82.00
2018-04-27T02:06:11.416Z,81.62
2018-04-27T02:07:11.464Z,82.09
2018-04-27T02:08:11.432Z,81.62
2018-04-27T02:09:11.449Z,81.90
2018-04-27T02:10:11.451Z,81.81
2018-04-27T02:11:11.462Z,81.90
2018-04-27T02:12:11.469Z,82.86
2018-04-27T02:13:11.519Z,82.57
2018-04-27T02:14:11.490Z,82.38
2018-04-27T02:15:11.495Z,82.28
2018-04-27T02:16:11.505Z,82.28
2018-04-27T02:17:11.513Z,82.53
2018-04-27T02:18:11.521Z,82.81
2018-04-27T02:19:11.539Z,83.67
2018-04-27T02:20:11.547Z,84.05
2018-04-27T02:21:11.546Z,84.33
2018-04-27T02:22:11.556Z,84.05
2018-04-27T02:23:11.565Z,84.24
2018-04-27T02:24:11.578Z,84.91
2018-04-27T02:25:11.590Z,84.33
2018-04-27T02:26:11.590Z,84.14
2018-04-27T02:27:11.600Z,83.86
2018-04-27T02:28:11.609Z,83.39
2018-04-27T02:29:11.617Z,83.58
2018-04-27T02:30:11.626Z,82.71
2018-04-27T02:31:11.639Z,82.53
2018-04-27T02:32:11.644Z,82.34
2018-04-27T02:33:11.658Z,82.62
2018-04-27T02:34:11.662Z,82.81
2018-04-27T02:35:11.668Z,82.91
2018-04-27T02:36:11.679Z,82.53
2018-04-27T02:37:11.684Z,82.81
2018-04-27T02:38:11.694Z,83.48
2018-04-27T02:39:11.701Z,82.24
2018-04-27T02:40:11.722Z,81.96
2018-04-27T02:41:11.725Z,82.71
2018-04-27T02:42:11.727Z,82.53
2018-04-27T02:43:11.742Z,82.24
2018-04-27T02:44:11.745Z,82.62
2018-04-27T02:45:11.753Z,82.53
2018-04-27T02:46:11.789Z,82.71
2018-04-27T02:47:11.772Z,82.43
2018-04-27T02:48:11.785Z,82.34
2018-04-27T02:49:11.788Z,82.34
2018-04-27T02:50:11.795Z,82.43
2018-04-27T02:51:11.804Z,82.62
2018-04-27T02:52:11.815Z,82.34
2018-04-27T02:53:12.409Z,82.34
2018-04-27T02:54:11.834Z,81.67
2018-04-27T02:55:11.838Z,82.34
2018-04-27T02:56:11.849Z,82.34
2018-04-27T02:57:12.572Z,82.43
2018-04-27T02:58:11.965Z,81.77
2018-04-27T02:59:11.874Z,81.67
2018-04-27T03:00:11.885Z,82.53
2018-04-27T03:01:11.891Z,82.62
2018-04-27T03:02:12.911Z,82.53
2018-04-27T03:03:11.909Z,82.81
2018-04-27T03:04:11.930Z,82.53
2018-04-27T03:05:11.924Z,82.62
2018-04-27T03:06:11.939Z,82.53
2018-04-27T03:07:11.953Z,82.24
2018-04-27T03:08:11.953Z,82.53
2018-04-27T03:09:11.966Z,82.53
2018-04-27T03:10:11.972Z,82.34
2018-04-27T03:11:11.977Z,82.62
2018-04-27T03:12:11.985Z,83.10
2018-04-27T03:13:12.020Z,83.10
2018-04-27T03:14:12.911Z,83.39
2018-04-27T03:15:12.010Z,82.87
2018-04-27T03:16:12.033Z,82.87
2018-04-27T03:17:12.027Z,82.20
2018-04-27T03:18:12.042Z,82.58
2018-04-27T03:19:12.043Z,83.62
2018-04-27T03:20:12.057Z,82.87
2018-04-27T03:21:12.061Z,82.77
2018-04-27T03:22:12.095Z,82.77
2018-04-27T03:23:12.087Z,83.15
2018-04-27T03:24:12.092Z,82.39
2018-04-27T03:25:12.095Z,82.91
2018-04-27T03:26:12.102Z,83.25
2018-04-27T03:27:12.123Z,82.77
2018-04-27T03:28:12.136Z,82.20
2018-04-27T03:29:12.127Z,82.01
2018-04-27T03:30:12.137Z,82.68
2018-04-27T03:31:12.147Z,82.29
2018-04-27T03:32:12.192Z,82.58
2018-04-27T03:33:12.162Z,83.25
2018-04-27T03:34:12.174Z,82.96
2018-04-27T03:35:12.179Z,82.29
2018-04-27T03:36:12.186Z,82.96
2018-04-27T03:37:12.200Z,82.39
2018-04-27T03:38:12.209Z,82.29
2018-04-27T03:39:12.217Z,82.58
2018-04-27T03:40:12.228Z,82.87
2018-04-27T03:41:12.266Z,83.06
2018-04-27T03:42:12.239Z,82.68
2018-04-27T03:43:12.245Z,82.77
2018-04-27T03:44:12.261Z,82.39
2018-04-27T03:45:12.261Z,82.96
2018-04-27T03:46:12.270Z,82.20
2018-04-27T03:47:12.285Z,82.39
2018-04-27T03:48:12.292Z,82.87
2018-04-27T03:49:12.307Z,83.15
2018-04-27T03:50:12.304Z,83.06
2018-04-27T03:51:12.312Z,82.39
2018-04-27T03:52:12.326Z,82.29
2018-04-27T03:53:12.326Z,82.68
2018-04-27T03:54:12.339Z,82.20
2018-04-27T03:55:12.350Z,82.29
2018-04-27T03:56:12.358Z,82.68
2018-04-27T03:57:12.372Z,82.20
2018-04-27T03:58:12.373Z,82.58
2018-04-27T03:59:12.385Z,82.96
2018-04-27T04:00:12.389Z,82.87
2018-04-27T04:01:12.441Z,82.96
2018-04-27T04:02:12.411Z,82.68
2018-04-27T04:03:12.419Z,82.64
2018-04-27T04:04:12.467Z,82.68
2018-04-27T04:05:12.427Z,82.87
2018-04-27T04:06:12.437Z,82.35
2018-04-27T04:07:12.447Z,83.11
2018-04-27T04:08:12.456Z,82.54
2018-04-27T04:09:12.458Z,83.01
2018-04-27T04:10:12.468Z,82.82
2018-04-27T04:11:12.477Z,82.73
2018-04-27T04:12:12.503Z,82.54
2018-04-27T04:13:12.493Z,82.16
2018-04-27T04:14:12.498Z,82.64
2018-04-27T04:15:12.531Z,82.96
2018-04-27T04:16:12.517Z,82.73
2018-04-27T04:17:12.522Z,82.73
2018-04-27T04:18:12.539Z,83.01
2018-04-27T04:19:12.543Z,82.73
2018-04-27T04:20:13.017Z,82.64
2018-04-27T04:21:12.563Z,82.26
2018-04-27T04:22:12.564Z,82.45
2018-04-27T04:23:12.580Z,82.26
2018-04-27T04:24:12.716Z,82.35
2018-04-27T04:25:12.597Z,82.35
2018-04-27T04:26:12.597Z,82.45
2018-04-27T04:27:12.616Z,82.45
2018-04-27T04:28:12.616Z,82.26
2018-04-27T04:29:12.627Z,82.64
2018-04-27T04:30:12.646Z,82.35
2018-04-27T04:31:12.639Z,82.54
2018-04-27T04:32:12.659Z,82.73
2018-04-27T04:33:12.655Z,83.49
2018-04-27T04:34:12.674Z,82.54
2018-04-27T04:35:12.670Z,82.54
2018-04-27T04:36:12.682Z,82.92
2018-04-27T04:37:12.706Z,82.73
2018-04-27T04:38:12.705Z,82.64
2018-04-27T04:39:12.712Z,83.01
2018-04-27T04:40:12.767Z,83.11
2018-04-27T04:41:12.725Z,82.45
2018-04-27T04:42:12.728Z,82.82
2018-04-27T04:43:12.735Z,82.35
2018-04-27T04:44:12.745Z,82.54
2018-04-27T04:45:12.827Z,82.07
2018-04-27T04:46:12.767Z,82.26
2018-04-27T04:47:12.769Z,82.26
2018-04-27T04:48:12.777Z,81.97
2018-04-27T04:49:12.784Z,81.87
2018-04-27T04:50:12.799Z,82.54
2018-04-27T04:51:12.801Z,82.64
2018-04-27T04:52:12.815Z,82.64
2018-04-27T04:53:12.841Z,82.96
2018-04-27T04:54:12.828Z,82.58
2018-04-27T04:55:12.836Z,82.29
2018-04-27T04:56:12.853Z,82.49
2018-04-27T04:57:12.851Z,82.58
2018-04-27T04:58:12.863Z,82.87
2018-04-27T04:59:12.877Z,83.15
2018-04-27T05:00:12.882Z,82.96
2018-04-27T05:01:12.881Z,82.96
2018-04-27T05:02:12.891Z,82.87
2018-04-27T05:03:12.899Z,83.72
2018-04-27T05:04:12.908Z,84.20
2018-04-27T05:05:12.914Z,84.10
2018-04-27T05:06:12.924Z,84.01
2018-04-27T05:07:12.931Z,83.82
2018-04-27T05:08:13.027Z,83.91
2018-04-27T05:09:12.947Z,83.62
2018-04-27T05:10:12.956Z,84.10
2018-04-27T05:11:12.966Z,84.10
2018-04-27T05:12:12.973Z,84.82
2018-04-27T05:13:12.981Z,84.63
2018-04-27T05:14:12.990Z,84.82
2018-04-27T05:15:13.000Z,84.72
2018-04-27T05:16:13.015Z,84.82
2018-04-27T05:17:13.011Z,85.30
2018-04-27T05:18:13.023Z,84.91
2018-04-27T05:19:13.033Z,85.39
2018-04-27T05:20:13.043Z,84.53
2018-04-27T05:21:13.085Z,84.48
2018-04-27T05:22:13.056Z,85.05
2018-04-27T05:23:13.097Z,84.67
2018-04-27T05:24:13.102Z,84.63
2018-04-27T05:25:13.083Z,84.53
2018-04-27T05:26:13.084Z,84.16
2018-04-27T05:27:13.094Z,84.58
2018-04-27T05:28:13.105Z,84.39
2018-04-27T05:29:13.134Z,85.05
2018-04-27T05:30:13.119Z,86.00
2018-04-27T05:31:13.132Z,86.00
2018-04-27T05:32:13.136Z,86.10
2018-04-27T05:33:13.146Z,85.34
2018-04-27T05:34:13.155Z,85.43
2018-04-27T05:35:13.163Z,85.34
2018-04-27T05:36:13.189Z,85.05
2018-04-27T05:37:13.177Z,85.62
2018-04-27T05:38:13.217Z,85.72
2018-04-27T05:39:13.228Z,85.72
2018-04-27T05:40:13.205Z,86.00
2018-04-27T05:41:13.214Z,85.91
2018-04-27T05:42:13.216Z,85.81
2018-04-27T05:43:13.247Z,86.38
2018-04-27T05:44:13.237Z,86.86
2018-04-27T05:45:13.242Z,87.14
2018-04-27T05:46:13.255Z,87.43
2018-04-27T05:47:13.264Z,88.38
2018-04-27T05:48:13.349Z,88.38
2018-04-27T05:49:13.275Z,88.00
2018-04-27T05:50:13.285Z,87.81
2018-04-27T05:51:13.302Z,88.23
2018-04-27T05:52:13.299Z,87.66
2018-04-27T05:53:13.309Z,87.38
2018-04-27T05:54:13.338Z,88.13
2018-04-27T05:55:13.333Z,88.04
2018-04-27T05:56:13.340Z,87.28
2018-04-27T05:57:13.342Z,87.66
2018-04-27T05:58:13.349Z,86.43
2018-04-27T05:59:13.360Z,84.62
2018-04-27T06:00:13.368Z,84.14
2018-04-27T06:01:13.376Z,84.05
2018-04-27T06:02:13.384Z,83.95
2018-04-27T06:03:13.394Z,83.62
2018-04-27T06:04:13.423Z,82.67
2018-04-27T06:05:13.411Z,82.28
2018-04-27T06:06:13.416Z,82.48
2018-04-27T06:07:13.427Z,81.62
2018-04-27T06:08:13.435Z,80.57
2018-04-27T06:09:13.443Z,82.19
2018-04-27T06:10:13.514Z,82.28
2018-04-27T06:11:13.505Z,81.81
2018-04-27T06:12:13.469Z,80.38
2018-04-27T06:13:13.481Z,79.72
2018-04-27T06:14:13.494Z,79.81
2018-04-27T06:15:13.500Z,78.57
2018-04-27T06:16:13.573Z,78.80
2018-04-27T06:17:13.511Z,77.66
2018-04-27T06:18:13.526Z,77.85
2018-04-27T06:19:13.560Z,77.76
2018-04-27T06:20:13.555Z,77.09
2018-04-27T06:21:13.558Z,78.61
2018-04-27T06:22:13.559Z,77.76
2018-04-27T06:23:13.569Z,77.76
2018-04-27T06:24:13.573Z,78.52
2018-04-27T06:25:13.585Z,77.85
2018-04-27T06:26:13.590Z,75.38
2018-04-27T06:27:13.617Z,73.99
2018-04-27T06:28:13.659Z,73.89
2018-04-27T06:29:13.658Z,73.41
2018-04-27T06:30:13.629Z,73.41
2018-04-27T06:31:13.636Z,73.61
2018-04-27T06:32:13.640Z,72.27
2018-04-27T06:33:13.651Z,72.65
2018-04-27T06:34:13.678Z,73.03
2018-04-27T06:35:13.667Z,73.32
2018-04-27T06:36:13.690Z,73.89
2018-04-27T06:37:22.558Z,71.73
2018-04-27T06:39:07.114Z,71.26
2018-04-27T06:40:07.099Z,72.50
2018-04-27T06:42:11.751Z,74.02
2018-04-27T06:43:11.612Z,73.74
2018-04-27T06:45:16.073Z,71.55
2018-04-27T06:46:16.130Z,72.69
2018-04-27T06:48:20.623Z,73.30
2018-04-27T06:49:20.766Z,72.97
2018-04-27T06:51:25.298Z,71.96
2018-04-27T06:52:25.121Z,72.16
2018-04-27T06:54:29.835Z,70.82
2018-04-27T06:55:29.651Z,70.82
2018-04-27T06:57:34.374Z,71.96
2018-04-27T06:58:34.167Z,72.16
2018-04-27T07:00:39.665Z,71.01
2018-04-27T07:01:39.817Z,71.68
2018-04-27T07:03:44.217Z,71.62
2018-04-27T07:04:44.474Z,71.43
2018-04-27T07:06:48.711Z,71.72
2018-04-27T07:07:48.880Z,71.72
2018-04-27T07:09:53.240Z,71.04
2018-04-27T07:10:53.248Z,70.28
2018-04-27T07:11:53.443Z,70.86
2018-04-27T07:12:53.493Z,70.76
2018-04-27T07:13:53.436Z,71.72
2018-04-27T07:14:53.515Z,70.95
2018-04-27T07:15:53.307Z,72.09
2018-04-27T07:16:53.344Z,71.52
2018-04-27T07:17:53.297Z,72.03
2018-04-27T07:18:56.186Z,71.46
2018-04-27T07:19:53.311Z,72.13
2018-04-27T07:20:53.375Z,72.03
2018-04-27T07:21:53.352Z,71.94
2018-04-27T07:22:53.342Z,71.94
2018-04-27T07:24:02.194Z,72.32
2018-04-27T07:25:57.920Z,71.84
2018-04-27T07:26:58.099Z,71.66
2018-04-27T07:28:52.436Z,72.89
2018-04-27T07:29:52.400Z,72.61
2018-04-27T07:30:52.393Z,72.42
2018-04-27T07:31:52.428Z,72.03
2018-04-27T07:32:52.479Z,71.94
2018-04-27T07:33:52.387Z,72.23
2018-04-27T07:34:52.390Z,71.69
2018-04-27T07:35:52.382Z,72.17
2018-04-27T07:36:52.398Z,71.69
2018-04-27T07:37:52.408Z,72.17
2018-04-27T07:38:52.447Z,71.78
2018-04-27T07:39:52.433Z,71.69
2018-04-27T07:40:52.429Z,71.98
2018-04-27T07:41:52.439Z,71.78
2018-04-27T07:42:52.455Z,72.26
2018-04-27T07:43:52.455Z,71.41
2018-04-27T07:44:52.478Z,71.88
2018-04-27T07:45:52.475Z,71.50
2018-04-27T07:46:52.486Z,71.44
2018-04-27T07:47:52.524Z,72.30
2018-04-27T07:48:52.513Z,72.01
2018-04-27T07:49:52.513Z,71.34
2018-04-27T07:50:52.529Z,71.72
2018-04-27T07:51:52.553Z,70.39
2018-04-27T07:52:52.589Z,71.06
2018-04-27T07:53:52.595Z,70.58
2018-04-27T07:54:52.586Z,69.82
2018-04-27T07:55:52.572Z,70.58
2018-04-27T07:56:52.614Z,71.72
2018-04-27T07:57:52.589Z,71.06
2018-04-27T07:58:52.659Z,70.20
2018-04-27T07:59:52.640Z,70.87
2018-04-27T08:00:52.622Z,70.20
2018-04-27T08:01:52.635Z,70.67
2018-04-27T08:02:52.671Z,70.71
2018-04-27T08:03:52.671Z,69.66
2018-04-27T08:04:52.660Z,69.47
2018-04-27T08:05:52.697Z,69.37
2018-04-27T08:06:52.681Z,68.51
2018-04-27T08:07:52.689Z,68.61
2018-04-27T08:08:52.720Z,69.47
2018-04-27T08:09:52.710Z,71.09
2018-04-27T08:10:52.719Z,70.33
2018-04-27T08:11:52.731Z,69.76
2018-04-27T08:12:52.748Z,68.70
2018-04-27T08:13:52.751Z,68.61
2018-04-27T08:14:52.783Z,67.46
2018-04-27T08:15:52.769Z,67.75
2018-04-27T08:16:52.779Z,68.90
2018-04-27T08:17:52.788Z,68.32
2018-04-27T08:18:52.804Z,67.18
2018-04-27T08:19:52.828Z,67.69
2018-04-27T08:20:52.820Z,67.36
2018-04-27T08:21:52.859Z,68.13
2018-04-27T08:22:52.839Z,67.97
2018-04-27T08:23:52.866Z,68.55
2018-04-27T08:24:52.869Z,68.26
2018-04-27T08:25:53.034Z,68.16
2018-04-27T08:26:52.951Z,67.30
2018-04-27T08:27:52.891Z,67.49
2018-04-27T08:28:52.899Z,66.83
2018-04-27T08:29:52.907Z,67.40
2018-04-27T08:30:52.949Z,67.11
2018-04-27T08:31:52.957Z,67.40
2018-04-27T08:32:52.937Z,65.87
2018-04-27T08:33:52.956Z,66.06
2018-04-27T08:34:52.959Z,67.11
2018-04-27T08:35:52.973Z,66.44
2018-04-27T08:36:52.987Z,66.28
2018-04-27T08:37:52.990Z,66.47
2018-04-27T08:38:53.013Z,66.76
2018-04-27T08:39:53.018Z,66.47
2018-04-27T08:40:53.020Z,66.19
2018-04-27T08:41:53.030Z,66.09
2018-04-27T08:42:53.052Z,65.52
2018-04-27T08:43:53.069Z,66.28
2018-04-27T08:44:53.070Z,66.47
2018-04-27T08:45:53.071Z,66.67
2018-04-27T08:46:53.086Z,65.81
2018-04-27T08:47:53.092Z,66.67
2018-04-27T08:48:53.103Z,65.61
2018-04-27T08:49:53.115Z,65.14
2018-04-27T08:50:53.135Z,65.17
2018-04-27T08:51:53.146Z,64.88
2018-04-27T08:52:53.150Z,64.79
2018-04-27T08:53:53.156Z,65.17
2018-04-27T08:54:53.166Z,65.84
2018-04-27T08:55:53.190Z,65.65
2018-04-27T08:56:53.192Z,62.49
2018-04-27T08:57:53.234Z,63.03
2018-04-27T08:58:53.209Z,62.74
2018-04-27T08:59:53.217Z,64.12
2018-04-27T09:00:53.552Z,64.02
2018-04-27T09:01:53.245Z,64.05
2018-04-27T09:02:53.251Z,63.19
2018-04-27T09:03:53.271Z,63.19
2018-04-27T09:04:53.274Z,63.93
2018-04-27T09:05:53.328Z,64.92
2018-04-27T09:06:53.317Z,64.15
2018-04-27T09:07:53.496Z,64.15
2018-04-27T09:08:53.909Z,63.00
2018-04-27T09:09:53.325Z,62.90
2018-04-27T09:10:53.343Z,62.90
2018-04-27T09:11:53.355Z,61.66
2018-04-27T09:12:53.362Z,61.82
2018-04-27T09:13:53.369Z,63.10
2018-04-27T09:14:53.376Z,64.72
2018-04-27T09:15:53.390Z,62.81
2018-04-27T09:16:53.401Z,63.96
2018-04-27T09:17:53.411Z,64.72
2018-04-27T09:18:53.432Z,63.39
2018-04-27T09:19:53.456Z,62.62
2018-04-27T09:20:53.513Z,63.86
2018-04-27T09:21:53.526Z,64.05
2018-04-27T09:22:53.613Z,64.28
2018-04-27T09:23:53.593Z,63.03
2018-04-27T09:24:53.497Z,63.60
2018-04-27T09:25:53.497Z,62.84
2018-04-27T09:26:53.602Z,62.55
2018-04-27T09:27:53.587Z,60.06
2018-04-27T09:28:53.731Z,60.54
2018-04-27T09:29:53.757Z,61.31
2018-04-27T09:30:53.556Z,62.46
2018-04-27T09:31:53.778Z,61.21
2018-04-27T09:32:53.734Z,61.69
2018-04-27T09:33:53.711Z,61.31
2018-04-27T09:34:53.674Z,62.26
2018-04-27T09:35:53.748Z,61.79
2018-04-27T09:36:53.640Z,62.55
2018-04-27T09:37:53.858Z,62.10
2018-04-27T09:38:53.772Z,61.24
2018-04-27T09:39:53.939Z,61.15
2018-04-27T09:40:53.786Z,60.47
2018-04-27T09:41:53.699Z,60.19
2018-04-27T09:42:53.707Z,60.86
2018-04-27T09:43:53.822Z,60.57
2018-04-27T09:44:53.709Z,60.00
2018-04-27T09:45:53.794Z,60.86
2018-04-27T09:46:53.785Z,60.09
2018-04-27T09:47:53.899Z,60.70
2018-04-27T09:48:53.763Z,60.03
2018-04-27T09:49:53.898Z,59.04
2018-04-27T09:50:53.790Z,59.74
2018-04-27T09:51:53.795Z,59.93
2018-04-27T09:52:53.997Z,57.43
2018-04-27T09:53:53.816Z,57.82
2018-04-27T09:54:53.815Z,57.43
2018-04-27T09:55:53.866Z,56.48
2018-04-27T09:56:53.855Z,58.20
2018-04-27T09:57:53.849Z,58.01
2018-04-27T09:58:53.863Z,57.53
2018-04-27T09:59:53.876Z,54.91
2018-04-27T10:00:54.163Z,55.90
2018-04-27T10:01:53.916Z,55.33
2018-04-27T10:02:53.904Z,56.67
2018-04-27T10:03:53.923Z,56.09
2018-04-27T10:04:53.926Z,55.33
2018-04-27T10:05:53.993Z,55.52
2018-04-27T10:06:54.106Z,56.96
2018-04-27T10:07:54.091Z,61.08
2018-04-27T10:08:54.032Z,61.18
2018-04-27T10:09:53.985Z,62.42
2018-04-27T10:10:54.013Z,60.82
2018-04-27T10:11:54.018Z,59.67
2018-04-27T10:12:54.019Z,58.23
2018-04-27T10:13:54.041Z,55.26
2018-04-27T10:14:54.054Z,55.35
2018-04-27T10:15:54.060Z,56.31
2018-04-27T10:16:54.068Z,54.88
2018-04-27T10:17:54.080Z,56.02
2018-04-27T10:18:54.119Z,56.70
2018-04-27T10:19:54.243Z,55.93
2018-04-27T10:20:54.207Z,56.02
2018-04-27T10:21:54.157Z,58.14
2018-04-27T10:22:54.135Z,55.07
2018-04-27T10:23:54.146Z,52.95
2018-04-27T10:24:54.179Z,52.86
2018-04-27T10:25:54.209Z,54.78
2018-04-27T10:26:54.231Z,55.64
2018-04-27T10:27:54.202Z,54.30
2018-04-27T10:28:54.225Z,54.49
2018-04-27T10:29:54.221Z,55.19
2018-04-27T10:30:54.392Z,55.10
2018-04-27T10:31:54.700Z,54.13
2018-04-27T10:32:54.498Z,56.34
2018-04-27T10:33:54.691Z,56.53
2018-04-27T10:34:54.355Z,55.38
2018-04-27T10:35:54.296Z,54.04
2018-04-27T10:36:54.334Z,52.60
2018-04-27T10:37:54.392Z,53.30
2018-04-27T10:38:54.357Z,52.72
2018-04-27T10:39:54.340Z,52.81
2018-04-27T10:40:54.488Z,52.53
2018-04-27T10:41:54.387Z,52.05
2018-04-27T10:42:54.478Z,52.05
2018-04-27T10:43:54.387Z,54.06
2018-04-27T10:44:54.406Z,54.06
2018-04-27T10:45:54.522Z,53.52
2018-04-27T10:46:54.663Z,52.62
2018-04-27T10:47:54.441Z,52.72
2018-04-27T10:48:54.705Z,52.65
2018-04-27T10:49:54.575Z,52.65
2018-04-27T10:50:54.922Z,52.94
2018-04-27T10:51:54.537Z,53.90
2018-04-27T10:52:54.526Z,53.90
2018-04-27T10:53:54.545Z,53.45
2018-04-27T10:54:54.549Z,53.25
2018-04-27T10:55:54.532Z,53.35
2018-04-27T10:56:54.548Z,52.10
2018-04-27T10:57:54.776Z,52.87
2018-04-27T10:58:54.574Z,53.74
2018-04-27T10:59:54.662Z,50.76
2018-04-27T11:00:54.603Z,49.79
2018-04-27T11:01:54.638Z,50.18
2018-04-27T11:02:54.698Z,51.35
2018-04-27T11:03:54.637Z,49.91
2018-04-27T11:04:54.669Z,49.36
2018-04-27T11:05:54.732Z,50.71
2018-04-27T11:06:54.670Z,48.81
2018-04-27T11:07:54.687Z,47.41
2018-04-27T11:08:54.700Z,47.12
2018-04-27T11:09:54.716Z,44.64
2018-04-27T11:10:54.762Z,44.95
2018-04-27T11:11:54.775Z,44.27
2018-04-27T11:12:54.946Z,43.64
2018-04-27T11:13:54.771Z,41.63
2018-04-27T11:14:54.863Z,40.38
2018-04-27T11:15:54.804Z,41.19
2018-04-27T11:16:55.107Z,40.63
2018-04-27T11:17:54.901Z,38.97
2018-04-27T11:18:54.859Z,37.54
2018-04-27T11:19:54.881Z,37.36
2018-04-27T11:20:54.932Z,36.88
2018-04-27T11:21:54.937Z,37.24
2018-04-27T11:22:54.931Z,38.33
2018-04-27T11:23:54.960Z,38.41
2018-04-27T11:24:54.970Z,38.73
2018-04-27T11:25:55.011Z,36.80
2018-04-27T11:26:55.011Z,38.17
2018-04-27T11:27:55.036Z,35.96
2018-04-27T11:28:55.074Z,35.86
2018-04-27T11:29:55.077Z,34.35
2018-04-27T11:30:55.110Z,34.56
2018-04-27T11:31:55.119Z,33.69
2018-04-27T11:32:55.141Z,34.59
2018-04-27T11:33:55.168Z,33.43
2018-04-27T11:34:55.186Z,33.15
2018-04-27T11:35:55.213Z,33.22
2018-04-27T11:36:55.233Z,32.02
2018-04-27T11:37:55.257Z,32.91
2018-04-27T11:38:55.284Z,33.20
2018-04-27T11:39:55.327Z,33.91
2018-04-27T11:40:55.324Z,33.06
2018-04-27T11:41:55.352Z,32.86
2018-04-27T11:42:55.372Z,33.64
2018-04-27T11:43:55.395Z,32.84
2018-04-27T11:44:55.430Z,31.51
2018-04-27T11:45:55.450Z,32.40
2018-04-27T11:46:55.542Z,31.93
2018-04-27T11:47:55.499Z,29.96
2018-04-27T11:48:55.529Z,29.08
2018-04-27T11:49:55.560Z,29.29
2018-04-27T11:50:55.565Z,29.18
2018-04-27T11:51:55.601Z,30.22
2018-04-27T11:52:55.624Z,30.68
2018-04-27T11:53:55.644Z,33.22
2018-04-27T11:54:55.668Z,32.57
2018-04-27T11:55:55.692Z,30.33
2018-04-27T11:56:55.714Z,29.96
2018-04-27T11:57:55.736Z,29.18
2018-04-27T11:58:55.765Z,27.73
2018-04-27T11:59:55.788Z,26.86
2018-04-27T12:00:55.829Z,27.76
2018-04-27T12:01:55.844Z,30.18
2018-04-27T12:02:55.915Z,28.93
2018-04-27T12:03:55.894Z,27.37
2018-04-27T12:04:55.924Z,28.26
2018-04-27T12:05:55.940Z,27.41
2018-04-27T12:06:55.965Z,28.13
2018-04-27T12:07:55.996Z,27.75
2018-04-27T12:08:56.078Z,27.61
2018-04-27T12:09:56.074Z,27.13
2018-04-27T12:10:56.081Z,27.70
2018-04-27T12:11:56.099Z,26.62
2018-04-27T12:12:56.206Z,27.20
2018-04-27T12:13:56.154Z,26.32
2018-04-27T12:14:56.224Z,27.16
2018-04-27T12:15:56.281Z,28.53
2018-04-27T12:16:56.887Z,28.55
2018-04-27T12:17:56.310Z,28.09
2018-04-27T12:18:56.333Z,26.23
2018-04-27T12:19:56.307Z,27.02
2018-04-27T12:20:56.539Z,26.81
2018-04-27T12:21:56.469Z,26.39
2018-04-27T12:22:56.525Z,27.65
2018-04-27T12:23:56.504Z,28.80
2018-04-27T12:24:56.646Z,27.82
2018-04-27T12:25:56.618Z,28.54
2018-04-27T12:26:56.493Z,28.77
2018-04-27T12:27:56.520Z,27.42
2018-04-27T12:28:56.549Z,27.76
2018-04-27T12:29:56.574Z,25.98
2018-04-27T12:30:56.647Z,26.04
2018-04-27T12:31:56.678Z,25.88
2018-04-27T12:32:56.657Z,25.68
2018-04-27T12:33:56.681Z,26.10
2018-04-27T12:34:56.712Z,24.91
2018-04-27T12:35:56.745Z,24.92
2018-04-27T12:36:56.764Z,24.65
2018-04-27T12:37:56.795Z,24.81
2018-04-27T12:38:56.905Z,25.61
2018-04-27T12:39:56.867Z,24.84
2018-04-27T12:40:56.880Z,26.33
2018-04-27T12:41:56.903Z,24.27
2018-04-27T12:42:56.926Z,23.08
2018-04-27T12:43:56.970Z,24.71
2018-04-27T12:44:57.030Z,25.93
2018-04-27T12:45:57.011Z,23.80
2018-04-27T12:46:57.038Z,23.11
2018-04-27T12:47:57.068Z,21.37
2018-04-27T12:48:57.103Z,22.25
2018-04-27T12:49:57.131Z,23.27
2018-04-27T12:50:57.152Z,22.80
2018-04-27T12:51:57.200Z,23.20
2018-04-27T12:52:57.211Z,23.28
2018-04-27T12:53:57.239Z,23.27
2018-04-27T12:54:57.287Z,23.36
2018-04-27T12:55:57.299Z,23.11
2018-04-27T12:56:57.320Z,21.36
2018-04-27T12:57:57.360Z,21.25
2018-04-27T12:58:57.384Z,22.05
2018-04-27T12:59:57.409Z,22.02
2018-04-27T13:00:57.434Z,21.64
2018-04-27T13:01:57.471Z,20.28
2018-04-27T13:02:57.491Z,20.40
2018-04-27T13:03:57.523Z,20.41
2018-04-27T13:04:57.559Z,19.40
2018-04-27T13:05:57.592Z,19.70